Time;durP1;ratioP1;P1;durP2;ratioP2;P2;SDS_P1;SDS_P2;PMS_P1;PMS_P2;Temp;Humidity;BMP_temperature;BMP_pressure;BME280_temperature;BME280_humidity;BME280_pressure;Samples;Min_cycle;Max_cycle;Signal;HPM_P1;HPM_P2
2024/01/15 00:01:36;;;;;;;9.03;2.53;;;2.50;99.90;;;;;;5046841;23;20151;-93
2024/01/15 00:03:37;;;;;;;6.90;2.57;;;2.50;99.90;;;;;;5047627;23;20509;-92
2024/01/15 00:05:38;;;;;;;5.20;2.53;;;2.60;99.90;;;;;;5070645;23;20201;-92
2024/01/15 00:07:39;;;;;;;8.83;2.57;;;2.50;99.90;;;;;;5070964;23;20272;-93
2024/01/15 00:09:40;;;;;;;7.07;2.93;;;2.60;99.90;;;;;;5025871;23;20641;-94
2024/01/15 00:11:40;;;;;;;5.03;1.90;;;2.60;99.90;;;;;;5022298;23;20151;-93
2024/01/15 00:13:41;;;;;;;4.97;2.00;;;2.50;99.90;;;;;;5022276;23;20174;-93
2024/01/15 00:15:43;;;;;;;2.07;1.50;;;2.50;99.90;;;;;;5046770;23;20732;-94
2024/01/15 00:17:44;;;;;;;3.77;2.00;;;2.50;99.90;;;;;;5046818;23;20205;-93
2024/01/15 00:19:45;;;;;;;4.47;1.47;;;2.40;99.90;;;;;;5022521;23;20238;-92
2024/01/15 00:21:47;;;;;;;3.67;1.43;;;2.40;99.90;;;;;;5022208;23;20163;-93
2024/01/15 00:23:47;;;;;;;2.23;1.47;;;2.40;99.90;;;;;;5022438;23;20211;-92
2024/01/15 00:25:50;;;;;;;4.33;1.70;;;2.40;99.90;;;;;;5022174;23;20226;-93
2024/01/15 00:27:51;;;;;;;2.13;1.17;;;2.30;99.90;;;;;;5028080;23;20273;-92
2024/01/15 00:29:52;;;;;;;9.03;1.63;;;2.30;99.90;;;;;;5035361;23;20150;-93
2024/01/15 00:31:53;;;;;;;2.73;1.23;;;2.30;99.90;;;;;;5044623;23;20143;-93
2024/01/15 00:33:53;;;;;;;2.03;1.07;;;2.30;99.90;;;;;;5028647;23;20175;-92
2024/01/15 00:35:54;;;;;;;2.33;1.13;;;2.40;99.90;;;;;;5021694;23;20194;-92
2024/01/15 00:37:55;;;;;;;2.57;1.70;;;2.50;99.90;;;;;;5021820;23;20159;-94
2024/01/15 00:39:56;;;;;;;5.43;2.20;;;2.40;99.90;;;;;;5021770;23;20190;-93
2024/01/15 00:41:57;;;;;;;3.13;1.53;;;2.50;99.90;;;;;;5048389;23;20213;-93
2024/01/15 00:43:58;;;;;;;4.47;1.33;;;2.60;99.90;;;;;;5025470;23;20602;-93
2024/01/15 00:46:02;;;;;;;1.67;0.80;;;2.60;99.90;;;;;;5024776;23;20175;-93
2024/01/15 00:48:04;;;;;;;1.83;1.07;;;2.80;99.90;;;;;;5047824;23;20756;-93
2024/01/15 00:50:05;;;;;;;2.10;1.10;;;2.80;99.90;;;;;;5022670;23;20606;-93
2024/01/15 00:52:06;;;;;;;1.93;1.00;;;2.80;99.90;;;;;;5022330;23;20160;-92
2024/01/15 00:54:07;;;;;;;2.40;1.60;;;2.80;99.90;;;;;;5024415;23;20166;-93
2024/01/15 00:56:08;;;;;;;1.53;0.87;;;2.80;99.90;;;;;;5023194;23;20733;-92
2024/01/15 00:58:09;;;;;;;2.73;1.13;;;2.90;99.90;;;;;;5022721;23;20155;-92
2024/01/15 01:00:10;;;;;;;3.03;1.20;;;2.90;99.90;;;;;;5047214;23;20601;-93
2024/01/15 01:02:11;;;;;;;2.73;1.10;;;2.80;99.90;;;;;;5045641;23;20162;-93
2024/01/15 01:04:12;;;;;;;0.97;0.73;;;2.70;99.90;;;;;;5023812;23;20238;-91
2024/01/15 01:06:13;;;;;;;1.37;0.90;;;2.60;99.90;;;;;;5022438;23;20178;-93
2024/01/15 01:08:14;;;;;;;2.90;0.90;;;2.50;99.90;;;;;;5045922;23;20729;-92
2024/01/15 01:10:15;;;;;;;1.00;0.90;;;2.60;99.90;;;;;;5047673;23;20154;-93
2024/01/15 01:12:16;;;;;;;1.03;0.30;;;2.60;99.90;;;;;;5023032;23;20151;-93
2024/01/15 01:14:17;;;;;;;1.37;1.10;;;2.60;99.90;;;;;;5024026;23;20151;-93
2024/01/15 01:16:18;;;;;;;2.07;0.83;;;2.60;99.90;;;;;;5046750;23;20628;-93
2024/01/15 01:18:18;;;;;;;3.30;0.87;;;2.60;99.90;;;;;;5023827;23;20162;-93
2024/01/15 01:20:19;;;;;;;0.40;0.30;;;2.60;99.90;;;;;;5022737;23;20242;-93
2024/01/15 01:22:20;;;;;;;1.43;0.57;;;2.60;99.90;;;;;;5048024;23;20162;-93
2024/01/15 01:24:21;;;;;;;1.67;0.73;;;2.60;99.90;;;;;;5024648;23;20155;-93
2024/01/15 01:26:22;;;;;;;1.77;0.73;;;2.60;99.90;;;;;;5024735;23;20237;-93
2024/01/15 01:28:23;;;;;;;0.87;0.70;;;2.70;99.90;;;;;;5024252;23;20182;-94
2024/01/15 01:30:24;;;;;;;0.60;0.47;;;2.80;99.90;;;;;;5047793;23;20212;-93
2024/01/15 01:32:24;;;;;;;10.03;1.73;;;2.70;99.90;;;;;;5048707;23;20550;-96
2024/01/15 01:34:26;;;;;;;5.40;0.73;;;2.80;99.90;;;;;;5050420;23;20182;-93
2024/01/15 01:36:27;;;;;;;0.50;0.50;;;2.90;99.90;;;;;;5027381;23;20178;-93
2024/01/15 01:38:27;;;;;;;0.87;0.33;;;2.90;99.90;;;;;;5003774;23;20591;-93
2024/01/15 01:40:28;;;;;;;0.50;0.40;;;2.90;99.90;;;;;;5026987;23;20165;-94
2024/01/15 01:42:29;;;;;;;0.80;0.37;;;2.80;99.90;;;;;;5026130;23;20158;-94
2024/01/15 01:44:30;;;;;;;0.90;0.63;;;2.90;99.90;;;;;;5028826;23;20625;-94
2024/01/15 01:46:31;;;;;;;1.47;0.60;;;3.10;99.90;;;;;;5025366;23;20174;-94
2024/01/15 01:48:32;;;;;;;0.23;0.23;;;3.10;99.90;;;;;;5026850;23;20169;-94
2024/01/15 01:50:34;;;;;;;0.30;0.20;;;3.00;99.90;;;;;;5027958;23;20158;-93
2024/01/15 01:52:35;;;;;;;0.70;0.50;;;2.90;99.90;;;;;;5029501;23;20155;-93
2024/01/15 01:54:38;;;;;;;1.30;0.27;;;2.90;99.90;;;;;;5077505;23;20154;-94
2024/01/15 01:56:39;;;;;;;0.73;0.40;;;2.90;99.90;;;;;;5053572;23;20525;-93
2024/01/15 01:58:40;;;;;;;2.00;0.47;;;3.10;99.90;;;;;;5031171;23;20705;-93
2024/01/15 02:00:41;;;;;;;1.60;0.37;;;3.20;99.90;;;;;;5031964;23;20194;-93
2024/01/15 02:02:42;;;;;;;0.67;0.40;;;3.30;99.90;;;;;;5028735;23;20607;-93
2024/01/15 02:04:44;;;;;;;0.57;0.50;;;3.30;99.90;;;;;;5029961;23;20213;-93
2024/01/15 02:06:45;;;;;;;1.57;0.83;;;3.40;99.90;;;;;;5051891;23;20189;-93
2024/01/15 02:08:46;;;;;;;6.13;0.83;;;3.30;99.90;;;;;;5064662;23;20176;-93
2024/01/15 02:10:47;;;;;;;3.50;0.60;;;3.30;99.90;;;;;;5076410;23;20486;-93
2024/01/15 02:12:48;;;;;;;1.43;0.63;;;3.40;99.90;;;;;;5053393;23;20150;-94
2024/01/15 02:14:49;;;;;;;0.77;0.40;;;3.30;99.90;;;;;;5028546;23;20160;-93
2024/01/15 02:16:50;;;;;;;3.13;0.50;;;3.20;99.90;;;;;;5051722;23;20169;-94
2024/01/15 02:18:50;;;;;;;1.60;0.70;;;3.10;99.90;;;;;;5052407;23;20163;-92
2024/01/15 02:20:51;;;;;;;0.67;0.37;;;2.90;99.90;;;;;;5025814;23;20163;-93
2024/01/15 02:22:52;;;;;;;5.27;1.17;;;3.10;99.90;;;;;;5028801;23;20159;-93
2024/01/15 02:24:53;;;;;;;0.97;0.87;;;3.00;99.90;;;;;;5024119;23;20534;-92
2024/01/15 02:26:54;;;;;;;1.53;0.73;;;2.90;99.90;;;;;;5024217;23;20197;-93
2024/01/15 02:28:55;;;;;;;1.00;0.70;;;2.70;99.90;;;;;;5047352;23;20236;-92
2024/01/15 02:30:56;;;;;;;0.53;0.40;;;2.80;99.90;;;;;;5022799;23;20174;-92
2024/01/15 02:32:59;;;;;;;2.37;0.93;;;2.80;99.90;;;;;;5024196;23;20158;-92
2024/01/15 02:35:00;;;;;;;0.77;0.60;;;2.80;99.90;;;;;;5024816;23;20155;-93
2024/01/15 02:37:01;;;;;;;2.13;0.87;;;2.80;99.90;;;;;;5023360;23;20155;-93
2024/01/15 02:39:02;;;;;;;2.90;1.10;;;2.80;99.90;;;;;;5023495;23;20155;-92
2024/01/15 02:41:03;;;;;;;2.97;0.90;;;2.70;99.90;;;;;;5025040;23;20229;-93
2024/01/15 02:43:04;;;;;;;1.73;1.10;;;2.70;99.90;;;;;;5023370;23;20151;-92
2024/01/15 02:45:05;;;;;;;2.13;1.13;;;2.70;99.90;;;;;;5025178;23;20158;-93
2024/01/15 02:47:05;;;;;;;3.43;1.17;;;2.70;99.90;;;;;;5023405;23;20190;-93
2024/01/15 02:49:06;;;;;;;1.93;1.30;;;2.70;99.90;;;;;;5023832;23;20162;-93
2024/01/15 02:51:07;;;;;;;1.83;0.87;;;2.70;99.90;;;;;;5026335;23;20165;-93
2024/01/15 02:53:08;;;;;;;2.03;1.23;;;2.70;99.90;;;;;;5047733;23;20154;-93
2024/01/15 02:55:09;;;;;;;1.47;1.00;;;2.70;99.90;;;;;;5023737;23;20207;-92
2024/01/15 02:57:10;;;;;;;8.53;0.90;;;2.70;99.90;;;;;;5049492;23;20574;-94
2024/01/15 02:59:11;;;;;;;2.40;1.20;;;2.70;99.90;;;;;;5050485;23;20162;-93
2024/01/15 03:01:11;;;;;;;1.77;0.97;;;2.70;99.90;;;;;;5028065;23;20162;-94
2024/01/15 03:03:13;;;;;;;6.27;1.43;;;2.70;99.90;;;;;;5040212;23;20155;-93
2024/01/15 03:05:13;;;;;;;4.83;1.60;;;2.80;99.90;;;;;;5069099;23;20167;-94
2024/01/15 03:07:15;;;;;;;2.27;1.00;;;3.00;99.90;;;;;;5050780;23;20189;-93
2024/01/15 03:09:16;;;;;;;2.10;1.17;;;2.80;99.90;;;;;;5050017;23;20173;-93
2024/01/15 03:11:17;;;;;;;2.63;1.90;;;2.80;99.90;;;;;;5026942;23;20151;-93
2024/01/15 03:13:19;;;;;;;3.63;1.50;;;2.90;99.90;;;;;;5051340;23;20509;-93
2024/01/15 03:15:20;;;;;;;2.67;1.23;;;2.90;99.90;;;;;;5029027;23;20214;-93
2024/01/15 03:17:20;;;;;;;2.37;1.37;;;2.70;99.90;;;;;;5025339;23;20155;-94
2024/01/15 03:19:21;;;;;;;2.90;1.03;;;2.50;99.90;;;;;;5022728;23;20244;-91
2024/01/15 03:21:22;;;;;;;1.80;1.10;;;2.30;99.90;;;;;;5023540;23;20207;-92
2024/01/15 03:23:23;;;;;;;2.37;1.00;;;2.50;99.90;;;;;;5023084;23;20166;-94
2024/01/15 03:25:24;;;;;;;1.63;1.27;;;2.50;99.90;;;;;;5022376;23;20241;-92
2024/01/15 03:27:25;;;;;;;1.83;0.83;;;2.60;99.90;;;;;;5022091;23;20230;-92
2024/01/15 03:29:27;;;;;;;8.40;1.80;;;2.50;99.90;;;;;;5023220;23;20151;-93
2024/01/15 03:31:27;;;;;;;6.53;2.37;;;2.40;99.90;;;;;;5021958;23;20154;-92
2024/01/15 03:33:28;;;;;;;1.77;1.13;;;2.40;99.90;;;;;;5022308;23;20602;-93
2024/01/15 03:35:30;;;;;;;2.00;1.27;;;2.50;99.90;;;;;;5046625;23;20229;-92
2024/01/15 03:37:31;;;;;;;2.90;1.27;;;2.50;99.90;;;;;;5046398;23;20154;-93
2024/01/15 03:39:32;;;;;;;3.00;0.97;;;2.50;99.90;;;;;;5023674;23;20237;-93
2024/01/15 03:41:33;;;;;;;3.63;1.60;;;2.50;99.90;;;;;;5023795;23;20183;-93
2024/01/15 03:43:34;;;;;;;4.67;1.43;;;2.60;99.90;;;;;;5024241;23;20158;-93
2024/01/15 03:45:34;;;;;;;2.90;1.33;;;2.70;99.90;;;;;;5046236;23;20471;-93
2024/01/15 03:47:35;;;;;;;4.87;2.20;;;2.70;99.90;;;;;;5022187;23;20195;-92
2024/01/15 03:49:36;;;;;;;3.13;1.47;;;2.60;99.90;;;;;;5022897;23;20146;-91
2024/01/15 03:51:37;;;;;;;6.20;1.47;;;2.60;99.90;;;;;;5022713;23;20252;-93
2024/01/15 03:53:38;;;;;;;2.83;1.93;;;2.50;99.90;;;;;;5046422;23;20146;-92
2024/01/15 03:55:39;;;;;;;3.07;1.90;;;2.60;99.90;;;;;;5045856;23;20506;-92
2024/01/15 03:57:40;;;;;;;6.67;2.37;;;2.70;99.90;;;;;;5022624;23;20237;-92
2024/01/15 03:59:41;;;;;;;8.10;2.13;;;2.70;99.90;;;;;;5047715;23;20204;-93
2024/01/15 04:01:49;;;;;;;4.17;2.57;;;2.70;99.90;;;;;;5023719;23;20187;-92
2024/01/15 04:03:50;;;;;;;4.53;2.53;;;2.70;99.90;;;;;;5022839;23;20166;-92
2024/01/15 04:05:51;;;;;;;3.27;1.80;;;2.70;99.90;;;;;;5046985;23;20381;-93
2024/01/15 04:07:52;;;;;;;5.07;2.20;;;2.90;99.90;;;;;;5022871;23;20190;-93
2024/01/15 04:09:52;;;;;;;9.17;2.27;;;2.90;99.90;;;;;;5048408;23;20157;-93
2024/01/15 04:11:53;;;;;;;3.53;2.00;;;3.00;99.90;;;;;;5031891;23;20194;-94
2024/01/15 04:13:54;;;;;;;2.73;1.17;;;3.10;99.90;;;;;;4997614;23;20163;-94
2024/01/15 04:15:55;;;;;;;2.67;1.60;;;2.90;99.90;;;;;;5021448;23;20548;-94
2024/01/15 04:17:56;;;;;;;2.67;1.43;;;2.70;99.90;;;;;;5045325;23;20174;-95
2024/01/15 04:19:57;;;;;;;2.70;1.23;;;2.80;99.90;;;;;;5021202;23;20156;-95
2024/01/15 04:21:57;;;;;;;1.83;0.87;;;2.70;99.90;;;;;;5045306;23;20185;-96
2024/01/15 04:23:58;;;;;;;1.60;0.70;;;2.70;99.90;;;;;;4997864;23;20155;-95
2024/01/15 04:25:59;;;;;;;1.93;0.67;;;2.70;99.90;;;;;;4997687;23;20235;-93
2024/01/15 04:28:00;;;;;;;0.57;0.57;;;2.70;99.90;;;;;;5021642;23;20221;-94
2024/01/15 04:30:01;;;;;;;1.00;0.50;;;2.70;99.90;;;;;;5044824;23;20146;-94
2024/01/15 04:32:02;;;;;;;2.10;0.50;;;2.60;99.90;;;;;;4997704;23;20190;-95
2024/01/15 04:34:02;;;;;;;0.30;0.30;;;2.80;99.90;;;;;;4997768;23;20151;-94
2024/01/15 04:36:05;;;;;;;1.13;0.60;;;2.90;99.90;;;;;;5045222;23;20206;-95
2024/01/15 04:38:05;;;;;;;0.90;0.50;;;3.00;99.90;;;;;;4997385;23;20540;-93
2024/01/15 04:40:07;;;;;;;1.07;0.47;;;3.10;99.90;;;;;;5021072;23;20290;-94
2024/01/15 04:42:08;;;;;;;6.17;0.57;;;3.00;99.90;;;;;;4997688;23;20159;-94
2024/01/15 04:44:09;;;;;;;0.93;0.43;;;3.00;99.90;;;;;;4997606;23;20160;-95
2024/01/15 04:46:10;;;;;;;1.13;0.60;;;2.90;99.90;;;;;;4997535;23;20175;-94
2024/01/15 04:48:10;;;;;;;1.70;0.30;;;3.00;99.90;;;;;;5045004;23;20201;-94
2024/01/15 04:50:11;;;;;;;0.50;0.20;;;2.80;99.90;;;;;;5021437;23;20179;-93
2024/01/15 04:52:12;;;;;;;0.63;0.40;;;2.70;99.90;;;;;;5044720;23;20680;-95
2024/01/15 04:54:17;;;;;;;0.60;0.57;;;2.60;99.90;;;;;;4997452;23;20151;-95
2024/01/15 04:56:18;;;;;;;0.93;0.30;;;2.80;99.90;;;;;;4997160;23;20202;-94
2024/01/15 04:58:19;;;;;;;2.57;0.83;;;2.80;99.90;;;;;;4997519;23;20151;-95
2024/01/15 05:00:20;;;;;;;4.93;0.90;;;2.90;99.90;;;;;;5044924;23;20161;-94
2024/01/15 05:02:20;;;;;;;0.63;0.50;;;2.80;99.90;;;;;;5020976;23;20167;-94
2024/01/15 05:04:21;;;;;;;0.63;0.30;;;2.60;99.90;;;;;;5021117;23;20155;-94
2024/01/15 05:06:22;;;;;;;2.27;0.43;;;2.70;99.90;;;;;;4997296;23;20175;-94
2024/01/15 05:08:23;;;;;;;0.40;0.30;;;2.60;99.90;;;;;;4997512;23;20163;-93
2024/01/15 05:10:23;;;;;;;0.47;0.30;;;2.50;99.90;;;;;;5021441;23;20151;-95
2024/01/15 05:12:24;;;;;;;1.30;0.37;;;2.50;99.90;;;;;;5014331;23;20166;-96
2024/01/15 05:14:25;;;;;;;0.47;0.30;;;2.70;99.90;;;;;;5021256;23;20609;-95
2024/01/15 05:16:26;;;;;;;0.23;0.20;;;2.70;99.90;;;;;;5044865;23;20202;-95
2024/01/15 05:18:26;;;;;;;2.40;1.00;;;2.70;99.90;;;;;;5021410;23;20609;-96
2024/01/15 05:20:27;;;;;;;0.20;0.20;;;2.60;99.90;;;;;;5045582;23;20178;-95
2024/01/15 05:22:28;;;;;;;1.37;0.17;;;2.80;99.90;;;;;;5021656;23;20570;-95
2024/01/15 05:24:29;;;;;;;0.33;0.30;;;2.90;99.90;;;;;;5021443;23;20568;-94
2024/01/15 05:26:30;;;;;;;5.40;0.40;;;2.80;99.90;;;;;;5021009;23;20262;-95
2024/01/15 05:28:30;;;;;;;0.03;0.03;;;2.90;99.90;;;;;;5021158;23;20151;-94
2024/01/15 05:30:31;;;;;;;0.10;0.10;;;3.00;99.90;;;;;;5021112;23;20509;-96
2024/01/15 05:32:33;;;;;;;0.10;0.10;;;2.90;99.90;;;;;;5020926;23;20226;-95
2024/01/15 05:34:34;;;;;;;0.80;0.50;;;2.70;99.90;;;;;;5044965;23;20154;-93
2024/01/15 05:36:34;;;;;;;0.10;0.00;;;2.60;99.90;;;;;;5021003;23;20672;-94
2024/01/15 05:38:35;;;;;;;0.30;0.20;;;2.50;99.90;;;;;;5021125;23;20255;-96
2024/01/15 05:40:36;;;;;;;1.50;0.40;;;2.60;99.90;;;;;;5020768;23;20161;-94
2024/01/15 05:42:37;;;;;;;0.20;0.10;;;2.60;99.90;;;;;;5069216;23;20154;-93
2024/01/15 05:44:38;;;;;;;0.60;0.10;;;2.50;99.90;;;;;;5021645;23;20565;-94
2024/01/15 05:46:38;;;;;;;2.77;0.30;;;2.50;99.90;;;;;;5044595;23;20180;-93
2024/01/15 05:48:39;;;;;;;0.93;0.53;;;2.50;99.90;;;;;;5021230;23;20193;-95
2024/01/15 05:50:41;;;;;;;1.37;0.33;;;2.40;99.90;;;;;;5020821;23;20195;-95
2024/01/15 05:52:42;;;;;;;8.10;0.27;;;2.20;99.90;;;;;;5020956;23;20226;-93
2024/01/15 05:54:43;;;;;;;0.10;0.10;;;2.30;99.90;;;;;;5020920;23;20155;-94
2024/01/15 05:56:43;;;;;;;0.20;0.20;;;2.40;99.90;;;;;;5020872;23;20242;-95
2024/01/15 05:58:44;;;;;;;0.10;0.10;;;2.40;99.90;;;;;;5044709;23;20181;-96
2024/01/15 06:00:46;;;;;;;4.33;0.30;;;2.50;99.90;;;;;;5020831;23;20150;-96
2024/01/15 06:02:47;;;;;;;0.60;0.20;;;2.50;99.90;;;;;;5020646;23;20151;-95
2024/01/15 06:04:47;;;;;;;0.67;0.33;;;2.50;99.90;;;;;;5044701;23;20165;-95
2024/01/15 06:06:48;;;;;;;1.53;0.80;;;2.50;99.90;;;;;;5021035;23;20194;-95
2024/01/15 06:08:49;;;;;;;0.20;0.20;;;2.50;99.90;;;;;;5021110;23;20214;-95
2024/01/15 06:10:50;;;;;;;0.53;0.20;;;2.30;99.90;;;;;;5020959;23;20151;-95
2024/01/15 06:12:51;;;;;;;0.40;0.40;;;2.30;99.90;;;;;;5020991;23;20660;-95
2024/01/15 06:14:52;;;;;;;0.20;0.20;;;2.30;99.90;;;;;;4996964;23;20244;-94
2024/01/15 06:16:53;;;;;;;1.60;0.30;;;2.20;99.90;;;;;;5020865;23;20182;-94
2024/01/15 06:18:53;;;;;;;2.00;0.83;;;2.20;99.90;;;;;;5020730;23;20154;-94
2024/01/15 06:20:54;;;;;;;0.50;0.20;;;2.30;99.90;;;;;;4997148;23;20234;-95
2024/01/15 06:22:55;;;;;;;0.70;0.50;;;2.40;99.90;;;;;;4997250;23;20243;-95
2024/01/15 06:24:57;;;;;;;2.37;1.00;;;2.50;99.90;;;;;;4996631;23;20263;-95
2024/01/15 06:26:58;;;;;;;0.93;0.30;;;2.40;99.90;;;;;;4997256;23;20188;-95
2024/01/15 06:28:59;;;;;;;0.63;0.27;;;2.30;99.90;;;;;;4997040;23;20164;-94
2024/01/15 06:31:00;;;;;;;0.20;0.20;;;2.30;99.90;;;;;;5029441;23;20671;-92
2024/01/15 06:33:01;;;;;;;0.80;0.20;;;2.20;99.90;;;;;;5021694;23;20163;-93
2024/01/15 06:35:12;;;;;;;1.40;0.97;;;2.10;99.90;;;;;;5044629;23;20213;-95
2024/01/15 06:37:21;;;;;;;0.60;0.30;;;2.10;99.90;;;;;;5046562;23;20186;-95
2024/01/15 06:39:29;;;;;;;0.10;0.10;;;2.00;99.90;;;;;;5022774;23;20190;-95
2024/01/15 06:41:33;;;;;;;5.00;0.30;;;1.90;99.90;;;;;;5022548;23;20155;-94
2024/01/15 06:43:34;;;;;;;0.47;0.40;;;1.80;99.90;;;;;;5022247;23;20221;-95
2024/01/15 06:45:35;;;;;;;1.20;0.37;;;1.70;99.90;;;;;;5046033;23;20174;-94
2024/01/15 06:47:36;;;;;;;0.40;0.37;;;1.70;99.90;;;;;;5022477;23;20191;-96
2024/01/15 06:49:37;;;;;;;0.10;0.10;;;1.70;99.90;;;;;;5022760;23;20178;-96
2024/01/15 06:51:38;;;;;;;3.53;0.43;;;1.70;99.90;;;;;;5046372;23;20155;-95
2024/01/15 06:53:41;;;;;;;0.53;0.20;;;1.70;99.90;;;;;;5022446;23;20506;-94
2024/01/15 06:55:42;;;;;;;0.43;0.30;;;1.80;99.90;;;;;;5045979;23;20222;-94
2024/01/15 06:57:46;;;;;;;8.17;0.40;;;1.80;99.90;;;;;;5022393;23;20154;-94
2024/01/15 06:59:47;;;;;;;0.47;0.23;;;1.80;99.90;;;;;;5046068;23;20226;-95
2024/01/15 07:01:53;;;;;;;1.67;0.30;;;1.90;99.90;;;;;;5022491;23;20586;-94
2024/01/15 07:03:57;;;;;;;0.27;0.20;;;2.00;99.90;;;;;;5021894;23;20211;-96
2024/01/15 07:06:00;;;;;;;0.80;0.30;;;2.00;99.90;;;;;;5045958;23;20692;-95
2024/01/15 07:08:08;;;;;;;0.40;0.33;;;2.00;99.90;;;;;;5045950;23;20252;-96
2024/01/15 07:10:11;;;;;;;1.67;1.20;;;1.90;99.90;;;;;;5022305;23;20162;-95
2024/01/15 07:12:21;;;;;;;0.70;0.40;;;1.80;99.90;;;;;;5046104;23;20589;-93
2024/01/15 07:14:22;;;;;;;2.07;1.33;;;1.80;99.90;;;;;;5046319;23;20158;-94
2024/01/15 07:16:23;;;;;;;6.93;0.57;;;1.70;99.90;;;;;;5022350;23;20206;-95
2024/01/15 07:18:24;;;;;;;0.50;0.50;;;1.70;99.90;;;;;;5022263;23;20159;-94
2024/01/15 07:20:25;;;;;;;4.47;1.57;;;1.70;99.90;;;;;;5045801;23;20485;-94
2024/01/15 07:22:26;;;;;;;4.77;2.57;;;1.60;99.90;;;;;;5022523;23;20165;-94
2024/01/15 07:24:27;;;;;;;30.27;12.47;;;1.60;99.90;;;;;;5022194;23;20206;-94
2024/01/15 07:26:32;;;;;;;77.90;35.30;;;1.60;99.90;;;;;;5070623;23;20245;-94
2024/01/15 07:28:33;;;;;;;19.90;11.33;;;1.60;99.90;;;;;;5022304;23;20158;-95
2024/01/15 07:30:34;;;;;;;52.83;28.07;;;1.50;99.90;;;;;;5035695;23;20565;-94
2024/01/15 07:32:35;;;;;;;57.23;24.67;;;1.50;99.90;;;;;;4998854;23;20246;-94
2024/01/15 07:34:36;;;;;;;58.37;30.93;;;1.50;99.90;;;;;;4998236;23;20163;-95
2024/01/15 07:36:37;;;;;;;18.60;9.23;;;1.50;99.90;;;;;;4998121;23;20186;-94
2024/01/15 07:38:38;;;;;;;3.60;1.80;;;1.50;99.90;;;;;;5021888;23;20685;-96
2024/01/15 07:40:39;;;;;;;1.20;1.00;;;1.50;99.90;;;;;;5022798;23;20159;-95
2024/01/15 07:42:42;;;;;;;0.80;0.60;;;1.50;99.90;;;;;;4998544;23;20174;-95
2024/01/15 07:44:43;;;;;;;1.37;0.40;;;1.50;99.90;;;;;;5021558;23;20206;-95
2024/01/15 07:46:47;;;;;;;4.37;0.83;;;1.60;99.90;;;;;;4997876;23;20175;-94
2024/01/15 07:48:51;;;;;;;3.73;1.70;;;1.60;99.90;;;;;;4998214;23;20152;-95
2024/01/15 07:50:52;;;;;;;5.00;1.47;;;1.50;99.90;;;;;;5021562;23;20155;-95
2024/01/15 07:52:56;;;;;;;2.27;0.90;;;1.50;99.90;;;;;;4998280;23;20156;-94
2024/01/15 07:54:59;;;;;;;5.23;1.30;;;1.60;99.90;;;;;;4997989;23;20156;-94
2024/01/15 07:57:05;;;;;;;1.63;1.00;;;1.60;99.90;;;;;;4998051;23;20156;-95
2024/01/15 07:59:06;;;;;;;3.90;2.83;;;1.60;99.90;;;;;;5045400;23;20155;-93
2024/01/15 08:01:07;;;;;;;1.23;1.13;;;1.60;99.90;;;;;;5021907;23;20182;-94
2024/01/15 08:03:07;;;;;;;3.60;0.80;;;1.70;99.90;;;;;;4997802;23;20156;-95
2024/01/15 08:05:08;;;;;;;12.10;0.90;;;1.70;99.90;;;;;;5021137;23;20171;-95
2024/01/15 08:07:09;;;;;;;3.63;1.03;;;2.00;99.90;;;;;;4997860;23;20191;-94
2024/01/15 08:09:10;;;;;;;1.53;0.80;;;2.00;99.90;;;;;;4998244;23;20241;-95
2024/01/15 08:11:11;;;;;;;4.83;1.40;;;2.20;99.90;;;;;;4998033;23;20242;-93
2024/01/15 08:13:12;;;;;;;0.77;0.30;;;2.20;99.90;;;;;;5045430;23;20154;-94
2024/01/15 08:15:13;;;;;;;4.40;0.57;;;2.30;99.90;;;;;;5021365;23;20185;-95
2024/01/15 08:17:15;;;;;;;4.23;1.07;;;2.30;99.90;;;;;;5021637;23;20146;-95
2024/01/15 08:19:17;;;;;;;1.57;0.97;;;2.40;99.90;;;;;;4998330;23;20163;-95
2024/01/15 08:21:18;;;;;;;4.73;0.50;;;2.50;99.90;;;;;;5046119;23;20214;-94
2024/01/15 08:23:22;;;;;;;0.90;0.50;;;2.80;99.90;;;;;;5021570;23;20155;-95
2024/01/15 08:25:23;;;;;;;2.00;0.40;;;3.10;99.90;;;;;;5021459;23;20181;-94
2024/01/15 08:27:25;;;;;;;0.90;0.60;;;3.10;99.90;;;;;;4997409;23;20203;-96
2024/01/15 08:29:26;;;;;;;2.20;0.43;;;3.20;99.90;;;;;;5021586;23;20336;-94
2024/01/15 08:31:27;;;;;;;2.20;0.67;;;3.30;99.90;;;;;;5018629;23;20250;-95
2024/01/15 08:33:29;;;;;;;1.27;0.77;;;3.40;99.90;;;;;;5021559;23;20147;-94
2024/01/15 08:35:36;;;;;;;3.07;0.40;;;3.40;99.90;;;;;;5044968;23;20205;-95
2024/01/15 08:37:38;;;;;;;1.87;0.60;;;3.30;99.90;;;;;;5021488;23;20153;-93
2024/01/15 08:39:39;;;;;;;1.53;0.40;;;3.30;99.90;;;;;;5044784;23;20158;-96
2024/01/15 08:41:40;;;;;;;7.73;0.87;;;3.10;99.90;;;;;;5045175;23;20156;-94
2024/01/15 08:43:41;;;;;;;0.33;0.20;;;3.20;99.90;;;;;;5044644;23;20158;-94
2024/01/15 08:45:45;;;;;;;6.53;0.70;;;3.30;99.90;;;;;;5044793;23;20265;-94
2024/01/15 08:47:45;;;;;;;0.97;0.30;;;3.30;99.90;;;;;;5044975;23;20193;-94
2024/01/15 08:49:46;;;;;;;2.20;0.40;;;3.40;99.90;;;;;;5021167;23;20234;-95
2024/01/15 08:51:47;;;;;;;12.00;2.30;;;3.20;99.90;;;;;;5021663;23;20151;-94
2024/01/15 08:53:48;;;;;;;5.37;0.50;;;3.30;99.90;;;;;;5045310;23;20157;-95
2024/01/15 08:55:54;;;;;;;19.70;5.00;;;3.50;99.90;;;;;;5045240;23;20603;-94
2024/01/15 08:57:55;;;;;;;2.07;0.80;;;3.50;99.90;;;;;;5021309;23;20258;-94
2024/01/15 08:59:56;;;;;;;1.67;0.40;;;3.70;99.90;;;;;;5020966;23;20183;-95
2024/01/15 09:01:57;;;;;;;9.53;4.60;;;3.80;99.90;;;;;;5045083;23;20174;-94
2024/01/15 09:04:00;;;;;;;11.87;2.30;;;3.90;99.90;;;;;;5020940;23;20162;-94
2024/01/15 09:06:01;;;;;;;4.77;1.53;;;3.80;99.90;;;;;;5045113;23;20174;-94
2024/01/15 09:08:46;;;;;;;2.67;1.10;;;3.80;99.90;;;;;;5022295;23;20226;-96
2024/01/15 09:10:47;;;;;;;10.40;2.07;;;3.60;99.90;;;;;;5052364;23;20170;-95
2024/01/15 09:13:11;;;;;;;1.47;0.40;;;3.50;99.90;;;;;;5024253;23;20157;-95
2024/01/15 09:15:18;;;;;;;1.23;0.60;;;3.60;99.90;;;;;;5047558;23;20181;-94
2024/01/15 09:17:21;;;;;;;1.73;0.70;;;3.70;99.90;;;;;;5025893;23;20384;-94
2024/01/15 09:20:11;;;;;;;;;;;;;;;;;;;;;
2024/01/15 09:22:43;;;;;;;0.67;0.27;;;3.80;99.90;;;;;;4977686;23;20196;-95
2024/01/15 09:25:04;;;;;;;4.03;1.03;;;4.10;99.90;;;;;;5065515;23;20167;-96
2024/01/15 09:27:10;;;;;;;3.43;0.90;;;4.30;99.90;;;;;;5020732;23;20198;-95
2024/01/15 09:29:33;;;;;;;6.07;0.53;;;4.60;99.90;;;;;;5050301;23;20755;-96
2024/01/15 09:32:18;;;;;;;0.00;0.00;;;4.80;99.90;;;;;;5029679;23;20159;-96
2024/01/15 09:34:55;;;;;;;2.00;0.53;;;4.50;99.90;;;;;;4985741;23;20164;-96
2024/01/15 09:38:31;;;;;;;2.93;0.67;;;4.80;99.90;;;;;;5079856;23;20200;-95
2024/01/15 09:53:33;;;;;;;6.30;0.63;;;3.90;99.90;;;;;;5077523;23;20153;-95
2024/01/15 09:56:13;;;;;;;;;;;;;;;;;;;;;
2024/01/15 09:59:29;;;;;;;1.90;0.30;;;4.00;99.90;;;;;;5028474;23;20185;-95
2024/01/15 10:02:28;;;;;;;;;;;;;;;;;;;;;
2024/01/15 10:04:40;;;;;;;0.43;0.20;;;3.80;99.90;;;;;;5000809;23;20193;-96
2024/01/15 10:10:47;;;;;;;0.60;0.30;;;3.80;99.90;;;;;;4934467;24;20648;-95
2024/01/15 10:13:04;;;;;;;0.90;0.30;;;3.80;99.90;;;;;;4985027;23;20196;-95
2024/01/15 10:15:26;;;;;;;3.83;0.87;;;3.90;99.90;;;;;;5045575;23;20539;-93
2024/01/15 10:17:30;;;;;;;0.47;0.40;;;3.90;99.90;;;;;;5048354;23;20178;-95
2024/01/15 10:19:34;;;;;;;0.43;0.43;;;4.00;99.90;;;;;;5049938;23;20284;-95
2024/01/15 10:21:38;;;;;;;0.57;0.37;;;3.80;99.90;;;;;;5070499;23;20142;-96
2024/01/15 10:23:42;;;;;;;1.87;0.90;;;3.80;99.90;;;;;;5046843;23;20640;-95
2024/01/15 10:25:51;;;;;;;0.33;0.20;;;3.80;99.90;;;;;;5070761;23;20170;-96
2024/01/15 10:28:14;;;;;;;3.80;0.47;;;4.00;99.90;;;;;;5046562;23;20229;-96
2024/01/15 10:30:16;;;;;;;2.90;0.87;;;4.10;99.90;;;;;;5070931;23;20160;-95
2024/01/15 10:32:23;;;;;;;0.70;0.70;;;4.20;99.90;;;;;;5049083;23;20178;-96
2024/01/15 10:34:25;;;;;;;0.63;0.30;;;4.20;99.90;;;;;;5047491;23;20250;-96
2024/01/15 10:36:29;;;;;;;4.83;0.87;;;4.20;99.90;;;;;;5071808;23;20197;-95
2024/01/15 10:38:30;;;;;;;3.73;0.67;;;4.20;99.90;;;;;;5047259;23;20162;-96
2024/01/15 10:40:32;;;;;;;2.40;0.60;;;4.20;99.90;;;;;;5069499;23;20181;-95
2024/01/15 10:42:36;;;;;;;0.27;0.27;;;4.20;99.90;;;;;;5050130;23;20158;-95
2024/01/15 10:44:47;;;;;;;;;;;;;;;;;;;;;
2024/01/15 10:46:51;;;;;;;0.97;0.10;;;4.10;99.90;;;;;;5070903;23;20193;-95
2024/01/15 10:48:52;;;;;;;1.33;0.77;;;4.20;99.90;;;;;;5049765;23;20206;-94
2024/01/15 10:50:53;;;;;;;2.33;0.50;;;4.30;99.90;;;;;;5050444;23;20292;-95
2024/01/15 10:52:54;;;;;;;1.20;0.30;;;4.30;99.90;;;;;;5075438;23;20157;-96
2024/01/15 10:54:56;;;;;;;2.10;0.73;;;4.40;99.90;;;;;;5073387;23;20158;-94
2024/01/15 10:56:57;;;;;;;4.53;0.63;;;4.40;99.90;;;;;;5050730;23;20226;-94
2024/01/15 10:59:01;;;;;;;2.07;1.03;;;4.30;99.90;;;;;;5050315;23;20221;-96
2024/01/15 11:01:04;;;;;;;4.33;1.70;;;4.60;99.90;;;;;;5050888;23;20150;-94
2024/01/15 11:03:06;;;;;;;1.47;0.73;;;4.70;99.90;;;;;;5049765;23;20162;-94
2024/01/15 11:05:07;;;;;;;11.40;3.63;;;4.80;99.90;;;;;;5048964;23;20150;-96
2024/01/15 11:07:10;;;;;;;4.90;0.93;;;4.90;99.90;;;;;;5048650;23;20210;-96
2024/01/15 11:09:12;;;;;;;0.70;0.40;;;5.00;99.90;;;;;;5051766;23;20178;-93
2024/01/15 11:11:13;;;;;;;0.73;0.20;;;4.80;99.90;;;;;;5073566;23;20181;-93